»·PEaware :: N878JL KUAO-KNRA

N878JL :: KUAO-KNRA

FLIGHT INFORMATION

Flight Status: Arrived
Operator: Privately registered:
United States
More flights under this callsign
Pilot: Andrew J. (13363)
Aircraft: CESSNA 340
(C340)
More flights by this aircraft type
Origin: KUAO Aurora State
United States
Destination: KNRA Coupeville NOLF
United States
More flights between these airports :: More routes between these airports
Route: UBG2 UBG T263 WINLO V165 CVV
File this flight plan on PilotEdge
Remarks:
Altitude:
(Current/Filed)
18,000ft
Speed:
(Current/Filed)
250kts
Departed: 12-Oct-18 06:19 PM
Arrived: 12-Oct-18 07:31 PM
Distance/Time
Traveled:
176nm/1:11
Distance/Time
To Go:
Arrived

Flight Plot

Page will automatically refresh every two minutes.

Flight plan parsing failed; only flown route is shown


Map Options




Map Legend


Flown Route
Filed Route
Departure Airport
Arrival Airport
Navaid (VOR, NDB)
Fix

Horizontal Profiles

Position Reports

Time Latitude Longitude Heading Altitude Ground
Speed
12-Oct-18 18:11 45.242499 -122.768246 279 198ft 0kts
12-Oct-18 18:12 45.242499 -122.768246 279 198ft 0kts
12-Oct-18 18:13 45.242499 -122.768246 279 198ft 0kts
12-Oct-18 18:14 45.242499 -122.768246 278 198ft 0kts
12-Oct-18 18:15 45.242499 -122.768246 278 198ft 0kts
12-Oct-18 18:16 45.242499 -122.768246 278 198ft 0kts
12-Oct-18 18:17 45.242729 -122.769249 279 198ft 11kts
12-Oct-18 18:18 45.240625 -122.769850 330 198ft 0kts
12-Oct-18 18:19 45.240310 -122.770242 259 198ft 9kts
12-Oct-18 18:20 45.241333 -122.771067 7 198ft 36kts
12-Oct-18 18:21 45.270807 -122.767035 348 987ft 124kts
12-Oct-18 18:22 45.287797 -122.806908 299 2599ft 121kts
12-Oct-18 18:23 45.303489 -122.848401 303 4118ft 116kts
12-Oct-18 18:24 45.318317 -122.887235 304 5383ft 110kts
12-Oct-18 18:25 45.332842 -122.925279 304 6631ft 111kts
12-Oct-18 18:26 45.347719 -122.964243 304 8133ft 111kts
12-Oct-18 18:27 45.369730 -122.982208 9 9618ft 111kts
12-Oct-18 18:28 45.398670 -122.984060 347 11033ft 104kts
12-Oct-18 18:29 45.427340 -122.987580 346 12404ft 104kts
12-Oct-18 18:30 45.455723 -122.991101 346 13706ft 103kts
12-Oct-18 18:31 45.483525 -122.994534 345 14836ft 99kts
12-Oct-18 18:32 45.518211 -123.000506 350 14971ft 150kts
12-Oct-18 18:33 45.560747 -123.004161 348 15426ft 147kts
12-Oct-18 18:34 45.597174 -123.008691 347 16472ft 124kts
12-Oct-18 18:35 45.631157 -123.013015 347 17243ft 123kts
12-Oct-18 18:36 45.665170 -123.017280 347 17950ft 123kts
12-Oct-18 18:37 45.703749 -123.022175 348 17988ft 154kts
12-Oct-18 18:38 45.748667 -123.027757 348 17982ft 167kts
12-Oct-18 18:39 45.795509 -123.033651 349 17984ft 171kts
12-Oct-18 18:40 45.842846 -123.039626 349 17988ft 172kts
12-Oct-18 18:41 45.890459 -123.045648 349 17993ft 172kts
12-Oct-18 18:42 45.938163 -123.051689 349 17999ft 172kts
12-Oct-18 18:43 45.985701 -123.057719 349 18005ft 172kts
12-Oct-18 18:44 46.032736 -123.061304 357 18094ft 170kts
12-Oct-18 18:45 46.080550 -123.054314 358 18097ft 174kts
12-Oct-18 18:46 46.123747 -123.047864 358 18106ft 181kts
12-Oct-18 18:47 46.174736 -123.040274 359 18104ft 186kts
12-Oct-18 18:48 46.217594 -123.033617 357 18098ft 181kts
12-Oct-18 18:49 46.277097 -123.025251 358 18104ft 185kts
12-Oct-18 18:50 46.319767 -123.018924 358 18107ft 186kts
12-Oct-18 18:51 46.379745 -123.010029 358 18105ft 183kts
12-Oct-18 18:52 46.428110 -123.002833 358 18110ft 170kts
12-Oct-18 18:53 46.466950 -122.997165 357 18112ft 167kts
12-Oct-18 18:54 46.520270 -122.989273 357 18116ft 165kts
12-Oct-18 18:55 46.558238 -122.983574 357 18118ft 164kts
12-Oct-18 18:56 46.603711 -122.976846 357 18118ft 164kts
12-Oct-18 18:57 46.656827 -122.968928 357 18118ft 164kts
12-Oct-18 18:58 46.694763 -122.963261 357 18118ft 164kts
12-Oct-18 18:59 46.740069 -122.956482 357 18119ft 164kts
12-Oct-18 19:00 46.785572 -122.949664 357 18124ft 164kts
12-Oct-18 19:01 46.830844 -122.942868 357 18129ft 164kts
12-Oct-18 19:02 46.876168 -122.936050 357 18134ft 164kts
12-Oct-18 19:03 46.921493 -122.929214 357 18134ft 163kts
12-Oct-18 19:04 46.966447 -122.922417 356 18133ft 162kts
12-Oct-18 19:05 47.018706 -122.914512 356 18132ft 161kts
12-Oct-18 19:06 47.055702 -122.908941 355 18132ft 161kts
12-Oct-18 19:07 47.100024 -122.902186 355 18131ft 160kts
12-Oct-18 19:08 47.143182 -122.895650 355 18140ft 161kts
12-Oct-18 19:09 47.187686 -122.888876 355 18139ft 161kts
12-Oct-18 19:10 47.232318 -122.882069 355 18141ft 161kts
12-Oct-18 19:11 47.276520 -122.875288 357 18143ft 159kts
12-Oct-18 19:12 47.320222 -122.868629 357 18146ft 158kts
12-Oct-18 19:13 47.363932 -122.861936 357 18147ft 157kts
12-Oct-18 19:14 47.407378 -122.855271 357 18147ft 157kts
12-Oct-18 19:15 47.450865 -122.848587 357 18147ft 157kts
12-Oct-18 19:16 47.494386 -122.841889 357 18147ft 157kts
12-Oct-18 19:17 47.538149 -122.835174 357 18006ft 164kts
12-Oct-18 19:18 47.588088 -122.827485 0 16630ft 206kts
12-Oct-18 19:19 47.643100 -122.818729 359 15994ft 184kts
12-Oct-18 19:20 47.691376 -122.811386 358 16003ft 168kts
12-Oct-18 19:21 47.739759 -122.803828 359 15343ft 187kts
12-Oct-18 19:22 47.793092 -122.795461 0 14375ft 197kts
12-Oct-18 19:23 47.849438 -122.786599 1 12772ft 211kts
12-Oct-18 19:24 47.907776 -122.777505 2 10963ft 210kts
12-Oct-18 19:25 47.965116 -122.768547 3 9208ft 207kts
12-Oct-18 19:26 48.021834 -122.759639 4 7501ft 206kts
12-Oct-18 19:27 48.078541 -122.750704 4 5826ft 205kts
12-Oct-18 19:28 48.134575 -122.741828 5 4045ft 205kts
12-Oct-18 19:29 48.186309 -122.724064 39 2605ft 186kts
12-Oct-18 19:30 48.224999 -122.684687 24 1809ft 148kts
12-Oct-18 19:31 48.214476 -122.648753 143 1116ft 120kts
12-Oct-18 19:32 48.189095 -122.632657 155 193ft 64kts
12-Oct-18 19:33 48.186559 -122.630907 157 191ft 0kts
12-Oct-18 19:34 48.186559 -122.630907 157 191ft 0kts

Navigation Log

Ident Type
Flight plan parsing failed, navigation log unavailable